createdAt,value
2024-01-16T00:00:17.928Z,99450.75
2024-01-16T00:02:46.280Z,99461.13
2024-01-16T00:05:14.730Z,99458.53
2024-01-16T00:07:43.080Z,99453.31
2024-01-16T00:10:11.922Z,99460.19
2024-01-16T00:12:41.173Z,99459.28
2024-01-16T00:15:10.942Z,99464.44
2024-01-16T00:17:40.662Z,99468.00
2024-01-16T00:20:10.523Z,99471.31
2024-01-16T00:22:39.106Z,99468.81
2024-01-16T00:25:08.611Z,99465.28
2024-01-16T00:27:36.946Z,99474.63
2024-01-16T00:30:06.337Z,99474.53
2024-01-16T00:32:37.148Z,99474.50
2024-01-16T00:35:07.310Z,99479.50
2024-01-16T00:37:36.139Z,99483.72
2024-01-16T00:40:05.594Z,99482.75
2024-01-16T00:42:34.032Z,99486.19
2024-01-16T00:45:02.915Z,99480.25
2024-01-16T00:47:31.231Z,99484.59
2024-01-16T00:50:01.262Z,99482.81
2024-01-16T00:52:30.887Z,99481.91
2024-01-16T00:54:59.248Z,99481.19
2024-01-16T00:57:27.907Z,99490.72
2024-01-16T00:59:56.212Z,99493.34
2024-01-16T01:02:24.557Z,99491.69
2024-01-16T01:04:52.872Z,99509.75
2024-01-16T01:07:21.228Z,99499.63
2024-01-16T01:09:50.880Z,99500.53
2024-01-16T01:12:19.220Z,99504.00
2024-01-16T01:14:47.635Z,99508.34
2024-01-16T01:17:16.580Z,99508.34
2024-01-16T01:19:44.957Z,99505.75
2024-01-16T01:22:13.477Z,99508.34
2024-01-16T01:24:41.799Z,99513.50
2024-01-16T01:27:11.489Z,99509.16
2024-01-16T01:29:39.898Z,99511.66
2024-01-16T01:32:08.684Z,99512.53
2024-01-16T01:34:37.014Z,99511.75
2024-01-16T01:37:05.745Z,99509.06
2024-01-16T01:39:34.071Z,99516.78
2024-01-16T01:42:02.430Z,99513.38
2024-01-16T01:44:32.154Z,99504.78
2024-01-16T01:47:00.936Z,99513.50
2024-01-16T01:49:29.875Z,99516.19
2024-01-16T01:51:58.709Z,99508.50
2024-01-16T01:54:28.481Z,99511.09
2024-01-16T01:56:57.347Z,99509.25
2024-01-16T01:59:26.809Z,99516.03
2024-01-16T02:01:57.289Z,99504.78
2024-01-16T02:04:28.200Z,99515.13
2024-01-16T02:06:57.890Z,99516.03
2024-01-16T02:09:26.218Z,99522.94
2024-01-16T02:11:54.499Z,99526.41
2024-01-16T02:14:23.021Z,99520.28
2024-01-16T02:16:51.996Z,99528.03
2024-01-16T02:19:21.660Z,99520.28
2024-01-16T02:21:51.645Z,99525.44
2024-01-16T02:24:21.704Z,99534.16
2024-01-16T02:26:50.153Z,99535.94
2024-01-16T02:29:18.887Z,99529.00
2024-01-16T02:31:47.283Z,99525.53
2024-01-16T02:34:15.729Z,99533.28
2024-01-16T02:36:44.516Z,99530.78
2024-01-16T02:39:12.914Z,99529.97
2024-01-16T02:41:42.933Z,99529.97
2024-01-16T02:44:11.308Z,99530.84
2024-01-16T02:46:40.524Z,99524.00
2024-01-16T02:49:09.674Z,99524.88
2024-01-16T02:51:38.415Z,99519.63
2024-01-16T02:54:08.080Z,99517.94
2024-01-16T02:56:36.521Z,99513.69
2024-01-16T02:59:06.701Z,99513.69
2024-01-16T03:01:35.238Z,99513.69
2024-01-16T03:04:03.564Z,99520.47
2024-01-16T03:06:32.188Z,99520.47
2024-01-16T03:09:00.877Z,99509.16
2024-01-16T03:11:31.278Z,99509.25
2024-01-16T03:14:00.948Z,99507.53
2024-01-16T03:16:31.165Z,99506.72
2024-01-16T03:18:59.682Z,99524.00
2024-01-16T03:21:28.658Z,99517.06
2024-01-16T03:23:57.338Z,99517.06
2024-01-16T03:26:25.978Z,99506.72
2024-01-16T03:28:54.281Z,99517.06
2024-01-16T03:31:23.220Z,99505.84
2024-01-16T03:33:52.971Z,99504.13
2024-01-16T03:36:21.287Z,99511.88
2024-01-16T03:38:49.686Z,99508.44
2024-01-16T03:41:18.139Z,99521.34
2024-01-16T03:43:46.518Z,99507.59
2024-01-16T03:46:15.260Z,99508.50
2024-01-16T03:48:43.659Z,99516.31
2024-01-16T03:51:16.454Z,99506.88
2024-01-16T03:53:44.780Z,99506.00
2024-01-16T03:56:13.181Z,99519.78
2024-01-16T03:58:42.834Z,99512.03
2024-01-16T04:01:11.497Z,99514.56
2024-01-16T04:03:40.559Z,99507.59
2024-01-16T04:06:18.634Z,99511.09
2024-01-16T04:08:47.560Z,99520.59
2024-01-16T04:11:16.573Z,99526.59
2024-01-16T04:13:44.913Z,99517.06
2024-01-16T04:16:14.363Z,99521.44
2024-01-16T04:18:44.574Z,99523.19
2024-01-16T04:21:12.979Z,99515.44
2024-01-16T04:23:43.458Z,99513.59
2024-01-16T04:26:12.051Z,99518.91
2024-01-16T04:28:40.372Z,99515.44
2024-01-16T04:31:08.812Z,99518.03
2024-01-16T04:33:37.420Z,99508.66
2024-01-16T04:36:06.178Z,99512.13
2024-01-16T04:38:34.481Z,99512.13
2024-01-16T04:41:04.862Z,99510.38
2024-01-16T04:43:33.252Z,99543.84
2024-01-16T04:46:03.805Z,99513.69
2024-01-16T04:48:32.720Z,99517.06
2024-01-16T04:51:01.195Z,99520.59
2024-01-16T04:53:29.606Z,99512.84
2024-01-16T04:55:58.019Z,99504.22
2024-01-16T04:58:27.672Z,99512.78
2024-01-16T05:00:57.268Z,99506.72
2024-01-16T05:03:25.614Z,99511.00
2024-01-16T05:05:54.590Z,99504.13
2024-01-16T05:08:23.175Z,99504.22
2024-01-16T05:10:52.219Z,99498.19
2024-01-16T05:13:20.469Z,99490.34
2024-01-16T05:15:50.225Z,99507.69
2024-01-16T05:18:18.654Z,99508.50
2024-01-16T05:20:47.192Z,99505.09
2024-01-16T05:23:15.557Z,99509.41
2024-01-16T05:25:44.008Z,99502.44
2024-01-16T05:28:12.340Z,99501.56
2024-01-16T05:30:40.689Z,99501.56
2024-01-16T05:33:10.506Z,99510.13
2024-01-16T05:35:38.970Z,99504.97
2024-01-16T05:38:07.820Z,99499.63
2024-01-16T05:40:36.114Z,99492.84
2024-01-16T05:43:05.155Z,99485.94
2024-01-16T05:45:33.469Z,99485.94
2024-01-16T05:48:01.974Z,99491.19
2024-01-16T05:50:31.941Z,99481.63
2024-01-16T05:53:00.912Z,99482.59
2024-01-16T05:55:29.981Z,99480.03
2024-01-16T05:57:58.380Z,99483.47
2024-01-16T06:00:26.849Z,99490.25
2024-01-16T06:02:55.867Z,99471.31
2024-01-16T06:05:24.255Z,99469.47
2024-01-16T06:07:54.365Z,99469.31
2024-01-16T06:10:22.677Z,99476.09
2024-01-16T06:12:50.948Z,99476.19
2024-01-16T06:15:19.335Z,99470.94
2024-01-16T06:17:47.911Z,99470.13
2024-01-16T06:20:16.307Z,99466.59
2024-01-16T06:22:44.719Z,99470.06
2024-01-16T06:25:14.303Z,99474.34
2024-01-16T06:27:42.997Z,99478.59
2024-01-16T06:30:12.778Z,99485.47
2024-01-16T06:32:41.328Z,99482.75
2024-01-16T06:35:09.903Z,99501.63
2024-01-16T06:37:38.773Z,99485.19
2024-01-16T06:40:07.838Z,99486.78
2024-01-16T06:42:37.976Z,99487.53
2024-01-16T06:45:07.726Z,99484.84
2024-01-16T06:47:36.101Z,99489.13
2024-01-16T06:50:05.466Z,99494.22
2024-01-16T06:52:33.744Z,99491.63
2024-01-16T06:55:02.139Z,99490.75
2024-01-16T06:57:30.441Z,99494.94
2024-01-16T07:00:00.227Z,99502.69
2024-01-16T07:02:28.763Z,99500.94
2024-01-16T07:04:59.697Z,99504.34
2024-01-16T07:07:28.844Z,99499.91
2024-01-16T07:09:57.092Z,99506.66
2024-01-16T07:12:25.401Z,99509.25
2024-01-16T07:14:53.616Z,99509.16
2024-01-16T07:17:23.359Z,99512.56
2024-01-16T07:19:51.734Z,99515.94
2024-01-16T07:22:20.006Z,99516.66
2024-01-16T07:24:48.395Z,99519.19
2024-01-16T07:27:16.596Z,99518.28
2024-01-16T07:29:44.802Z,99516.53
2024-01-16T07:32:13.212Z,99522.50
2024-01-16T07:34:42.904Z,99530.25
2024-01-16T07:37:11.177Z,99539.66
2024-01-16T07:39:39.705Z,99538.88
2024-01-16T07:42:07.094Z,99529.31
2024-01-16T07:44:35.371Z,99543.94
2024-01-16T07:47:04.409Z,99539.59
2024-01-16T07:49:32.808Z,99543.94
2024-01-16T07:52:02.596Z,99549.97
2024-01-16T07:54:32.041Z,99541.44
2024-01-16T07:57:00.547Z,99544.09
2024-01-16T07:59:29.074Z,99544.09
2024-01-16T08:01:57.946Z,99541.50
2024-01-16T08:04:26.246Z,99545.78
2024-01-16T08:06:55.056Z,99544.09
2024-01-16T08:09:25.392Z,99545.06
2024-01-16T08:11:53.717Z,99535.66
2024-01-16T08:14:22.110Z,99549.44
2024-01-16T08:16:50.419Z,99541.69
2024-01-16T08:19:18.756Z,99539.09
2024-01-16T08:21:47.077Z,99542.66
2024-01-16T08:24:15.510Z,99531.41
2024-01-16T08:26:45.171Z,99537.50
2024-01-16T08:29:13.591Z,99537.56
2024-01-16T08:31:41.822Z,99542.81
2024-01-16T08:34:10.239Z,99545.38
2024-01-16T08:36:38.627Z,99557.41
2024-01-16T08:39:07.032Z,99554.59
2024-01-16T08:41:35.335Z,99550.88
2024-01-16T08:44:05.379Z,99561.13
2024-01-16T08:46:34.007Z,99560.28
2024-01-16T08:49:02.356Z,99551.81
2024-01-16T08:51:30.687Z,99557.94
2024-01-16T08:53:59.051Z,99555.47
2024-01-16T08:56:27.577Z,99558.13
2024-01-16T08:58:55.929Z,99559.06
2024-01-16T09:01:25.692Z,99555.72
2024-01-16T09:03:54.038Z,99553.28
2024-01-16T09:06:22.901Z,99551.66
2024-01-16T09:08:51.452Z,99554.31
2024-01-16T09:11:19.858Z,99553.56
2024-01-16T09:13:48.179Z,99557.94
2024-01-16T09:16:16.445Z,99556.34
2024-01-16T09:18:46.497Z,99551.19
2024-01-16T09:21:15.369Z,99555.50
2024-01-16T09:23:43.805Z,99557.13
2024-01-16T09:26:12.543Z,99562.22
2024-01-16T09:28:41.112Z,99556.16
2024-01-16T09:31:09.427Z,99551.81
2024-01-16T09:33:37.905Z,99560.53
2024-01-16T09:36:08.383Z,99562.28
2024-01-16T09:38:36.842Z,99561.50
2024-01-16T09:41:05.647Z,99545.91
2024-01-16T09:43:35.414Z,99566.66
2024-01-16T09:46:05.871Z,99546.97
2024-01-16T09:48:34.492Z,99547.88
2024-01-16T09:51:03.205Z,99547.13
2024-01-16T09:53:32.936Z,99554.94
2024-01-16T09:56:05.075Z,99554.19
2024-01-16T09:58:37.518Z,99547.44
2024-01-16T10:01:07.095Z,99546.53
2024-01-16T10:03:36.984Z,99554.38
2024-01-16T10:06:07.973Z,99565.66
2024-01-16T10:08:38.486Z,99552.72
2024-01-16T10:11:06.768Z,99540.66
2024-01-16T10:13:35.246Z,99539.78
2024-01-16T10:16:04.978Z,99533.78
2024-01-16T10:18:35.009Z,99537.09
2024-01-16T10:21:03.864Z,99542.25
2024-01-16T10:23:34.258Z,99529.44
2024-01-16T10:26:11.221Z,99518.38
2024-01-16T10:28:41.464Z,99523.69
2024-01-16T10:31:11.779Z,99527.25
2024-01-16T10:33:40.905Z,99530.69
2024-01-16T10:36:14.252Z,99520.47
2024-01-16T10:38:44.679Z,99508.50
2024-01-16T10:41:15.544Z,99505.09
2024-01-16T10:43:45.136Z,99511.25
2024-01-16T10:46:15.191Z,99502.75
2024-01-16T10:48:45.910Z,99515.72
2024-01-16T10:51:17.268Z,99512.50
2024-01-16T10:53:47.449Z,99509.16
2024-01-16T10:56:19.748Z,99513.50
2024-01-16T10:58:58.080Z,99508.53
2024-01-16T11:01:27.504Z,99503.28
2024-01-16T11:03:58.475Z,99498.94
2024-01-16T11:06:27.023Z,99489.47
2024-01-16T11:08:57.263Z,99502.47
2024-01-16T11:11:28.989Z,99501.75
2024-01-16T11:13:58.120Z,99500.09
2024-01-16T11:16:26.974Z,99497.59
2024-01-16T11:18:57.601Z,99499.28
2024-01-16T11:21:29.557Z,99494.34
2024-01-16T11:23:57.862Z,99504.84
2024-01-16T11:26:33.412Z,99485.19
2024-01-16T11:29:03.073Z,99505.94
2024-01-16T11:31:32.983Z,99516.19
2024-01-16T11:34:02.271Z,99501.66
2024-01-16T11:36:53.211Z,99503.34
2024-01-16T11:39:23.077Z,99522.41
2024-01-16T11:41:54.576Z,99521.56
2024-01-16T11:44:39.608Z,99509.53
2024-01-16T11:47:08.523Z,99500.91
2024-01-16T11:49:37.115Z,99491.41
2024-01-16T11:52:06.029Z,99481.06
2024-01-16T11:54:35.209Z,99476.78
2024-01-16T11:57:33.395Z,99472.47
2024-01-16T12:00:13.567Z,99462.28
2024-01-16T12:02:53.800Z,99463.25
2024-01-16T12:05:23.023Z,99468.50
2024-01-16T12:07:55.014Z,99458.16
2024-01-16T12:10:25.372Z,99458.28
2024-01-16T12:13:02.013Z,99460.78
2024-01-16T12:15:34.165Z,99451.41
2024-01-16T12:18:04.921Z,99440.28
2024-01-16T12:20:34.954Z,99436.00
2024-01-16T12:23:04.368Z,99434.38
2024-01-16T12:26:00.457Z,99424.03
2024-01-16T12:28:31.680Z,99418.13
2024-01-16T12:31:04.571Z,99425.88
2024-01-16T12:33:33.579Z,99404.28
2024-01-16T12:36:06.971Z,99414.56
2024-01-16T12:38:36.306Z,99398.94
2024-01-16T12:41:10.259Z,99399.69
2024-01-16T12:43:39.810Z,99395.41
2024-01-16T12:46:09.550Z,99402.31
2024-01-16T12:48:39.090Z,99405.78
2024-01-16T12:51:13.442Z,99405.88
2024-01-16T12:53:41.914Z,99400.81
2024-01-16T12:56:11.816Z,99387.97
2024-01-16T12:58:41.571Z,99406.13
2024-01-16T13:01:38.387Z,99407.91
2024-01-16T13:04:09.076Z,99403.75
2024-01-16T13:06:38.496Z,99390.91
2024-01-16T13:09:11.077Z,99407.38
2024-01-16T13:11:50.898Z,99407.44
2024-01-16T13:14:19.403Z,99410.97
2024-01-16T13:16:49.182Z,99411.84
2024-01-16T13:19:19.408Z,99410.09
2024-01-16T13:21:48.302Z,99409.09
2024-01-16T13:24:18.425Z,99404.78
2024-01-16T13:26:47.517Z,99396.16
2024-01-16T13:29:16.640Z,99396.22
2024-01-16T13:31:45.377Z,99389.41
2024-01-16T13:34:15.641Z,99390.28
2024-01-16T13:39:16.087Z,99381.78
2024-01-16T13:41:45.384Z,99386.00
2024-01-16T13:44:13.720Z,99377.31
2024-01-16T13:46:53.694Z,99377.16
2024-01-16T13:49:31.250Z,99385.88
2024-01-16T13:51:59.567Z,99372.16
2024-01-16T13:54:28.031Z,99372.16
2024-01-16T13:57:05.658Z,99367.03
2024-01-16T13:59:37.126Z,99379.94
2024-01-16T14:02:07.111Z,99375.66
2024-01-16T14:04:36.745Z,99371.31
2024-01-16T14:07:12.564Z,99365.31
2024-01-16T14:09:45.030Z,99356.75
2024-01-16T14:12:15.919Z,99356.88
2024-01-16T14:14:44.665Z,99358.66
2024-01-16T14:17:13.416Z,99355.31
2024-01-16T14:19:43.704Z,99354.59
2024-01-16T14:22:12.023Z,99347.75
2024-01-16T14:24:40.563Z,99357.31
2024-01-16T14:27:08.994Z,99352.13
2024-01-16T14:29:40.766Z,99352.13
2024-01-16T14:32:09.696Z,99350.41
2024-01-16T14:34:38.163Z,99348.72
2024-01-16T14:37:07.982Z,99346.97
2024-01-16T14:39:37.494Z,99346.00
2024-01-16T14:42:07.207Z,99343.41
2024-01-16T14:44:36.512Z,99347.72
2024-01-16T14:47:05.204Z,99344.16
2024-01-16T14:49:35.441Z,99349.22
2024-01-16T14:52:03.996Z,99354.09
2024-01-16T14:54:33.598Z,99340.09
2024-01-16T14:57:01.970Z,99351.94
2024-01-16T14:59:30.276Z,99337.09
2024-01-16T15:01:58.678Z,99340.38
2024-01-16T15:04:27.083Z,99338.53
2024-01-16T15:06:56.733Z,99335.75
2024-01-16T15:09:25.266Z,99329.69
2024-01-16T15:11:54.975Z,99331.31
2024-01-16T15:14:23.529Z,99320.03
2024-01-16T15:16:52.137Z,99313.91
2024-01-16T15:19:20.882Z,99318.13
2024-01-16T15:21:49.214Z,99316.28
2024-01-16T15:24:22.927Z,99317.03
2024-01-16T15:26:51.327Z,99313.50
2024-01-16T15:29:21.107Z,99306.44
2024-01-16T15:31:49.496Z,99310.63
2024-01-16T15:34:17.927Z,99314.84
2024-01-16T15:36:46.577Z,99312.97
2024-01-16T15:39:16.885Z,99324.03
2024-01-16T15:41:46.124Z,99324.78
2024-01-16T15:44:15.264Z,99326.41
2024-01-16T15:47:01.193Z,99332.31
2024-01-16T15:49:30.061Z,99343.31
2024-01-16T15:52:00.104Z,99342.28
2024-01-16T15:54:29.051Z,99334.38
2024-01-16T15:56:57.463Z,99341.19
2024-01-16T15:59:26.796Z,99351.34
2024-01-16T16:01:55.140Z,99353.00
2024-01-16T16:04:25.211Z,99351.22
2024-01-16T16:06:53.630Z,99361.41
2024-01-16T16:09:23.799Z,99357.81
2024-01-16T16:11:52.709Z,99355.97
2024-01-16T16:14:21.333Z,99350.63
2024-01-16T16:16:50.494Z,99360.81
2024-01-16T16:19:19.381Z,99352.94
2024-01-16T16:21:51.397Z,99351.09
2024-01-16T16:24:19.804Z,99352.72
2024-01-16T16:26:48.069Z,99350.88
2024-01-16T16:29:18.391Z,99358.53
2024-01-16T16:31:46.834Z,99352.34
2024-01-16T16:34:17.572Z,99361.69
2024-01-16T16:36:46.711Z,99366.72
2024-01-16T16:39:17.908Z,99369.28
2024-01-16T16:41:47.554Z,99366.72
2024-01-16T16:44:16.049Z,99374.31
2024-01-16T16:46:44.308Z,99369.06
2024-01-16T16:49:12.724Z,99366.34
2024-01-16T16:51:43.130Z,99358.50
2024-01-16T16:54:12.181Z,99352.41
2024-01-16T16:56:43.465Z,99348.88
2024-01-16T16:59:12.400Z,99351.38
2024-01-16T17:01:41.159Z,99344.38
2024-01-16T17:04:09.858Z,99341.69
2024-01-16T17:06:38.489Z,99347.69
2024-01-16T17:09:08.393Z,99342.44
2024-01-16T17:11:36.959Z,99344.97
2024-01-16T17:14:06.699Z,99342.28
2024-01-16T17:16:34.972Z,99330.13
2024-01-16T17:19:04.757Z,99337.78
2024-01-16T17:21:33.179Z,99340.34
2024-01-16T17:24:01.741Z,99334.28
2024-01-16T17:26:31.506Z,99338.50
2024-01-16T17:29:01.545Z,99339.25
2024-01-16T17:31:31.466Z,99332.34
2024-01-16T17:33:59.922Z,99325.38
2024-01-16T17:36:29.466Z,99317.59
2024-01-16T17:39:00.431Z,99322.66
2024-01-16T17:41:30.088Z,99317.47
2024-01-16T17:43:59.210Z,99316.53
2024-01-16T17:46:27.629Z,99325.09
2024-01-16T17:48:58.099Z,99325.91
2024-01-16T17:51:27.187Z,99326.72
2024-01-16T17:53:55.632Z,99323.16
2024-01-16T17:56:26.684Z,99319.66
2024-01-16T17:58:55.939Z,99312.72
2024-01-16T18:01:24.263Z,99310.94
2024-01-16T18:03:53.470Z,99304.00
2024-01-16T18:06:23.667Z,99297.09
2024-01-16T18:08:52.225Z,99293.56
2024-01-16T18:11:22.216Z,99289.03
2024-01-16T18:13:50.485Z,99289.88
2024-01-16T18:16:19.085Z,99290.59
2024-01-16T18:18:47.613Z,99285.22
2024-01-16T18:21:16.840Z,99276.59
2024-01-16T18:23:48.258Z,99279.91
2024-01-16T18:26:16.683Z,99284.09
2024-01-16T18:28:44.953Z,99280.53
2024-01-16T18:31:14.509Z,99290.84
2024-01-16T18:33:43.005Z,99273.63
2024-01-16T18:36:11.695Z,99273.63
2024-01-16T18:38:41.365Z,99267.59
2024-01-16T18:41:11.132Z,99267.59
2024-01-16T18:43:39.340Z,99254.63
2024-01-16T18:46:07.600Z,99258.09
2024-01-16T18:48:36.314Z,99258.91
2024-01-16T18:51:05.587Z,99245.94
2024-01-16T18:53:34.182Z,99251.91
2024-01-16T18:56:06.697Z,99242.38
2024-01-16T18:58:36.327Z,99234.59
2024-01-16T19:01:04.549Z,99238.88
2024-01-16T19:03:35.679Z,99239.66
2024-01-16T19:06:13.399Z,99237.91
2024-01-16T19:08:43.092Z,99238.69
2024-01-16T19:11:11.668Z,99242.09
2024-01-16T19:13:42.046Z,99237.78
2024-01-16T19:16:10.950Z,99226.50
2024-01-16T19:18:41.941Z,99230.69
2024-01-16T19:21:10.689Z,99227.13
2024-01-16T19:23:40.058Z,99229.63
2024-01-16T19:26:09.327Z,99222.72
2024-01-16T19:28:37.674Z,99227.00
2024-01-16T19:31:07.510Z,99214.03
2024-01-16T19:33:36.225Z,99215.72
2024-01-16T19:36:06.697Z,99222.47
2024-01-16T19:38:36.643Z,99225.88
2024-01-16T19:41:05.138Z,99212.03
2024-01-16T19:43:33.380Z,99212.03
2024-01-16T19:46:01.837Z,99207.69
2024-01-16T19:48:31.838Z,99223.94
2024-01-16T19:51:01.089Z,99210.09
2024-01-16T19:53:29.744Z,99204.00
2024-01-16T19:56:00.018Z,99201.44
2024-01-16T19:58:28.692Z,99196.19
2024-01-16T20:00:57.114Z,99186.72
2024-01-16T20:03:27.746Z,99184.94
2024-01-16T20:05:57.516Z,99181.47
2024-01-16T20:08:27.161Z,99169.38
2024-01-16T20:10:55.523Z,99170.22
2024-01-16T20:13:23.837Z,99170.22
2024-01-16T20:15:52.120Z,99164.19
2024-01-16T20:18:20.488Z,99158.16
2024-01-16T20:20:48.844Z,99158.94
2024-01-16T20:23:18.568Z,99152.91
2024-01-16T20:25:47.064Z,99154.63
2024-01-16T20:28:15.622Z,99155.41
2024-01-16T20:30:45.306Z,99157.97
2024-01-16T20:33:13.832Z,99155.34
2024-01-16T20:35:42.150Z,99149.31
2024-01-16T20:38:10.779Z,99152.69
2024-01-16T20:40:43.017Z,99145.78
2024-01-16T20:43:11.301Z,99148.25
2024-01-16T20:45:39.606Z,99151.66
2024-01-16T20:48:08.283Z,99153.34
2024-01-16T20:50:36.744Z,99148.13
2024-01-16T20:53:05.393Z,99150.59
2024-01-16T20:55:35.832Z,99145.44
2024-01-16T20:58:05.604Z,99156.56
2024-01-16T21:00:35.173Z,99152.25
2024-01-16T21:03:08.377Z,99149.66
2024-01-16T21:05:37.289Z,99150.47
2024-01-16T21:08:06.569Z,99142.63
2024-01-16T21:10:35.291Z,99146.91
2024-01-16T21:13:05.444Z,99140.00
2024-01-16T21:15:33.731Z,99133.06
2024-01-16T21:18:02.206Z,99136.47
2024-01-16T21:20:30.560Z,99139.03
2024-01-16T21:22:59.797Z,99124.41
2024-01-16T21:25:29.101Z,99128.66
2024-01-16T21:27:57.367Z,99131.19
2024-01-16T21:30:27.941Z,99120.88
2024-01-16T21:32:56.467Z,99117.34
2024-01-16T21:35:24.830Z,99111.31
2024-01-16T21:37:53.091Z,99104.47
2024-01-16T21:40:21.793Z,99105.28
2024-01-16T21:42:50.092Z,99095.88
2024-01-16T21:45:18.458Z,99085.56
2024-01-16T21:47:48.120Z,99083.78
2024-01-16T21:50:25.782Z,99072.56
2024-01-16T21:52:59.847Z,99069.03
2024-01-16T21:55:28.207Z,99062.03
2024-01-16T21:57:57.082Z,99051.66
2024-01-16T22:00:25.505Z,99045.63
2024-01-16T22:02:57.927Z,99033.50
2024-01-16T22:05:27.075Z,99031.72
2024-01-16T22:07:55.640Z,99027.28
2024-01-16T22:10:24.257Z,99022.97
2024-01-16T22:12:52.565Z,99018.66
2024-01-16T22:15:20.931Z,99031.41
2024-01-16T22:17:49.284Z,99023.63
2024-01-16T22:20:19.045Z,99023.56
2024-01-16T22:22:47.325Z,99025.25
2024-01-16T22:25:15.733Z,99025.97
2024-01-16T22:27:44.127Z,99018.19
2024-01-16T22:30:13.638Z,99027.59
2024-01-16T22:32:42.258Z,99017.22
2024-01-16T22:35:11.933Z,99005.16
2024-01-16T22:37:47.583Z,99006.78
2024-01-16T22:40:17.340Z,99007.56
2024-01-16T22:42:45.909Z,99002.41
2024-01-16T22:45:15.562Z,99000.66
2024-01-16T22:47:44.452Z,98998.91
2024-01-16T22:50:13.393Z,98988.53
2024-01-16T22:52:43.328Z,98995.38
2024-01-16T22:55:11.807Z,98990.22
2024-01-16T22:57:40.131Z,98976.50
2024-01-16T23:00:20.040Z,98973.84
2024-01-16T23:02:49.497Z,98967.72
2024-01-16T23:05:19.772Z,98980.59
2024-01-16T23:07:50.697Z,98974.47
2024-01-16T23:10:20.932Z,98984.75
2024-01-16T23:12:49.844Z,98966.72
2024-01-16T23:15:18.246Z,98967.50
2024-01-16T23:17:47.911Z,98959.78
2024-01-16T23:20:17.306Z,98965.84
2024-01-16T23:22:46.220Z,98961.47
2024-01-16T23:25:16.966Z,98956.28
2024-01-16T23:27:50.132Z,98952.00
2024-01-16T23:30:19.944Z,98945.09
2024-01-16T23:32:48.336Z,98933.03
2024-01-16T23:35:16.880Z,98927.81
2024-01-16T23:37:46.891Z,98917.47
2024-01-16T23:40:19.182Z,98928.53
2024-01-16T23:42:47.493Z,98924.22
2024-01-16T23:45:23.905Z,98921.56
2024-01-16T23:47:56.816Z,98919.00
2024-01-16T23:50:26.494Z,98907.75
2024-01-16T23:52:55.097Z,98906.81
2024-01-16T23:55:24.727Z,98898.19
2024-01-16T23:57:53.061Z,98893.03
